sensor_id;sensor_type;location;lat;lon;timestamp;P1;durP1;ratioP1;P2;durP2;ratioP2
751;SDS011;360;48.764;9.164;2022-12-28T00:01:33;6.30;;;2.43;;
751;SDS011;360;48.764;9.164;2022-12-28T00:04:01;2.77;;;2.47;;
751;SDS011;360;48.764;9.164;2022-12-28T00:06:30;3.80;;;2.50;;
751;SDS011;360;48.764;9.164;2022-12-28T00:09:00;5.83;;;3.00;;
751;SDS011;360;48.764;9.164;2022-12-28T00:11:28;4.87;;;2.20;;
751;SDS011;360;48.764;9.164;2022-12-28T00:13:55;4.10;;;2.70;;
751;SDS011;360;48.764;9.164;2022-12-28T00:16:24;4.40;;;3.30;;
751;SDS011;360;48.764;9.164;2022-12-28T00:18:52;2.80;;;2.00;;
751;SDS011;360;48.764;9.164;2022-12-28T00:21:19;6.13;;;2.90;;
751;SDS011;360;48.764;9.164;2022-12-28T00:23:49;4.80;;;2.20;;
751;SDS011;360;48.764;9.164;2022-12-28T00:26:18;4.60;;;2.43;;
751;SDS011;360;48.764;9.164;2022-12-28T00:28:45;3.30;;;1.77;;
751;SDS011;360;48.764;9.164;2022-12-28T00:31:12;1.97;;;1.77;;
751;SDS011;360;48.764;9.164;2022-12-28T00:33:39;3.40;;;2.07;;
751;SDS011;360;48.764;9.164;2022-12-28T00:36:06;2.90;;;2.17;;
751;SDS011;360;48.764;9.164;2022-12-28T00:38:37;3.67;;;2.03;;
751;SDS011;360;48.764;9.164;2022-12-28T00:41:04;3.00;;;1.90;;
751;SDS011;360;48.764;9.164;2022-12-28T00:43:33;3.30;;;2.07;;
751;SDS011;360;48.764;9.164;2022-12-28T00:46:00;2.10;;;1.60;;
751;SDS011;360;48.764;9.164;2022-12-28T00:48:27;1.53;;;1.30;;
751;SDS011;360;48.764;9.164;2022-12-28T00:50:59;3.47;;;3.17;;
751;SDS011;360;48.764;9.164;2022-12-28T00:53:27;2.67;;;2.03;;
751;SDS011;360;48.764;9.164;2022-12-28T00:55:54;8.17;;;1.90;;
751;SDS011;360;48.764;9.164;2022-12-28T00:58:21;3.97;;;2.30;;
751;SDS011;360;48.764;9.164;2022-12-28T01:00:49;3.90;;;2.30;;
751;SDS011;360;48.764;9.164;2022-12-28T01:03:15;3.70;;;2.63;;
751;SDS011;360;48.764;9.164;2022-12-28T01:05:42;3.03;;;2.20;;
751;SDS011;360;48.764;9.164;2022-12-28T01:08:09;3.03;;;2.07;;
751;SDS011;360;48.764;9.164;2022-12-28T01:10:37;1.90;;;1.63;;
751;SDS011;360;48.764;9.164;2022-12-28T01:13:04;2.60;;;2.00;;
751;SDS011;360;48.764;9.164;2022-12-28T01:15:31;3.23;;;1.70;;
751;SDS011;360;48.764;9.164;2022-12-28T01:17:59;3.13;;;1.95;;
751;SDS011;360;48.764;9.164;2022-12-28T01:20:26;4.30;;;1.73;;
751;SDS011;360;48.764;9.164;2022-12-28T01:22:53;2.20;;;2.00;;
751;SDS011;360;48.764;9.164;2022-12-28T01:25:20;2.57;;;2.03;;
751;SDS011;360;48.764;9.164;2022-12-28T01:27:47;2.40;;;1.93;;
751;SDS011;360;48.764;9.164;2022-12-28T01:30:14;3.17;;;1.83;;
751;SDS011;360;48.764;9.164;2022-12-28T01:32:41;1.77;;;1.60;;
751;SDS011;360;48.764;9.164;2022-12-28T01:35:09;1.83;;;1.50;;
751;SDS011;360;48.764;9.164;2022-12-28T01:37:36;3.50;;;2.40;;
751;SDS011;360;48.764;9.164;2022-12-28T01:40:03;2.57;;;2.17;;
751;SDS011;360;48.764;9.164;2022-12-28T01:42:30;2.03;;;1.57;;
751;SDS011;360;48.764;9.164;2022-12-28T01:44:57;2.77;;;2.57;;
751;SDS011;360;48.764;9.164;2022-12-28T01:47:41;2.13;;;1.30;;
751;SDS011;360;48.764;9.164;2022-12-28T01:50:11;1.70;;;1.47;;
751;SDS011;360;48.764;9.164;2022-12-28T01:52:41;3.27;;;1.80;;
751;SDS011;360;48.764;9.164;2022-12-28T01:55:13;1.60;;;1.33;;
751;SDS011;360;48.764;9.164;2022-12-28T01:57:43;2.53;;;1.60;;
751;SDS011;360;48.764;9.164;2022-12-28T02:00:14;1.50;;;1.23;;
751;SDS011;360;48.764;9.164;2022-12-28T02:02:42;2.37;;;1.83;;
751;SDS011;360;48.764;9.164;2022-12-28T02:05:15;3.30;;;1.77;;
751;SDS011;360;48.764;9.164;2022-12-28T02:07:43;1.47;;;1.20;;
751;SDS011;360;48.764;9.164;2022-12-28T02:10:16;2.87;;;1.50;;
751;SDS011;360;48.764;9.164;2022-12-28T02:12:45;3.13;;;1.20;;
751;SDS011;360;48.764;9.164;2022-12-28T02:15:12;2.20;;;1.33;;
751;SDS011;360;48.764;9.164;2022-12-28T02:17:39;2.47;;;1.53;;
751;SDS011;360;48.764;9.164;2022-12-28T02:20:06;5.00;;;1.50;;
751;SDS011;360;48.764;9.164;2022-12-28T02:22:46;1.43;;;0.90;;
751;SDS011;360;48.764;9.164;2022-12-28T02:25:46;3.20;;;1.27;;
751;SDS011;360;48.764;9.164;2022-12-28T02:28:57;2.73;;;1.40;;
751;SDS011;360;48.764;9.164;2022-12-28T02:31:54;2.60;;;1.20;;
751;SDS011;360;48.764;9.164;2022-12-28T02:34:25;2.87;;;1.93;;
751;SDS011;360;48.764;9.164;2022-12-28T02:36:59;3.23;;;1.53;;
751;SDS011;360;48.764;9.164;2022-12-28T02:39:35;1.27;;;1.03;;
751;SDS011;360;48.764;9.164;2022-12-28T02:42:06;1.00;;;0.90;;
751;SDS011;360;48.764;9.164;2022-12-28T02:44:36;2.40;;;1.57;;
751;SDS011;360;48.764;9.164;2022-12-28T02:47:21;2.43;;;1.27;;
751;SDS011;360;48.764;9.164;2022-12-28T02:50:07;1.10;;;0.90;;
751;SDS011;360;48.764;9.164;2022-12-28T02:52:42;1.80;;;1.10;;
751;SDS011;360;48.764;9.164;2022-12-28T02:55:34;1.27;;;1.17;;
751;SDS011;360;48.764;9.164;2022-12-28T02:58:35;1.70;;;1.23;;
751;SDS011;360;48.764;9.164;2022-12-28T03:01:22;1.00;;;0.80;;
751;SDS011;360;48.764;9.164;2022-12-28T03:04:01;2.20;;;1.40;;
751;SDS011;360;48.764;9.164;2022-12-28T03:06:37;3.53;;;1.00;;
751;SDS011;360;48.764;9.164;2022-12-28T03:09:27;1.67;;;0.70;;
751;SDS011;360;48.764;9.164;2022-12-28T03:12:00;2.70;;;1.20;;
751;SDS011;360;48.764;9.164;2022-12-28T03:14:31;1.00;;;0.67;;
751;SDS011;360;48.764;9.164;2022-12-28T03:17:07;1.80;;;1.10;;
751;SDS011;360;48.764;9.164;2022-12-28T03:19:53;1.00;;;0.60;;
751;SDS011;360;48.764;9.164;2022-12-28T03:22:40;6.97;;;1.97;;
751;SDS011;360;48.764;9.164;2022-12-28T03:25:26;1.63;;;1.03;;
751;SDS011;360;48.764;9.164;2022-12-28T03:28:15;1.43;;;1.33;;
751;SDS011;360;48.764;9.164;2022-12-28T03:31:06;0.90;;;0.73;;
751;SDS011;360;48.764;9.164;2022-12-28T03:33:39;1.00;;;0.80;;
751;SDS011;360;48.764;9.164;2022-12-28T03:36:10;2.00;;;1.00;;
751;SDS011;360;48.764;9.164;2022-12-28T03:38:45;1.10;;;0.87;;
751;SDS011;360;48.764;9.164;2022-12-28T03:41:17;1.50;;;0.90;;
751;SDS011;360;48.764;9.164;2022-12-28T03:43:49;1.53;;;0.80;;
751;SDS011;360;48.764;9.164;2022-12-28T03:46:19;0.90;;;0.50;;
751;SDS011;360;48.764;9.164;2022-12-28T03:48:50;3.63;;;2.03;;
751;SDS011;360;48.764;9.164;2022-12-28T03:51:19;1.73;;;1.03;;
751;SDS011;360;48.764;9.164;2022-12-28T03:53:47;1.00;;;0.80;;
751;SDS011;360;48.764;9.164;2022-12-28T03:56:14;1.10;;;0.87;;
751;SDS011;360;48.764;9.164;2022-12-28T03:58:43;1.40;;;1.03;;
751;SDS011;360;48.764;9.164;2022-12-28T04:01:10;1.60;;;1.03;;
751;SDS011;360;48.764;9.164;2022-12-28T04:03:36;1.87;;;1.33;;
751;SDS011;360;48.764;9.164;2022-12-28T04:06:05;0.90;;;0.70;;
751;SDS011;360;48.764;9.164;2022-12-28T04:08:33;1.50;;;0.90;;
751;SDS011;360;48.764;9.164;2022-12-28T04:11:00;2.80;;;1.33;;
751;SDS011;360;48.764;9.164;2022-12-28T04:13:28;1.60;;;1.10;;
751;SDS011;360;48.764;9.164;2022-12-28T04:15:56;4.40;;;1.33;;
751;SDS011;360;48.764;9.164;2022-12-28T04:18:25;1.10;;;0.70;;
751;SDS011;360;48.764;9.164;2022-12-28T04:20:52;0.93;;;0.57;;
751;SDS011;360;48.764;9.164;2022-12-28T04:23:20;1.33;;;0.80;;
751;SDS011;360;48.764;9.164;2022-12-28T04:25:56;1.07;;;0.70;;
751;SDS011;360;48.764;9.164;2022-12-28T04:28:24;1.00;;;0.77;;
751;SDS011;360;48.764;9.164;2022-12-28T04:30:51;2.20;;;0.73;;
751;SDS011;360;48.764;9.164;2022-12-28T04:33:18;0.90;;;0.73;;
751;SDS011;360;48.764;9.164;2022-12-28T04:35:45;0.77;;;0.50;;
751;SDS011;360;48.764;9.164;2022-12-28T04:38:11;2.17;;;0.70;;
751;SDS011;360;48.764;9.164;2022-12-28T04:40:40;2.10;;;0.90;;
751;SDS011;360;48.764;9.164;2022-12-28T04:43:07;1.10;;;0.80;;
751;SDS011;360;48.764;9.164;2022-12-28T04:45:34;1.00;;;0.80;;
751;SDS011;360;48.764;9.164;2022-12-28T04:48:01;1.00;;;0.70;;
751;SDS011;360;48.764;9.164;2022-12-28T04:50:28;0.87;;;0.73;;
751;SDS011;360;48.764;9.164;2022-12-28T04:52:55;1.70;;;0.90;;
751;SDS011;360;48.764;9.164;2022-12-28T04:55:23;5.60;;;0.93;;
751;SDS011;360;48.764;9.164;2022-12-28T04:57:51;0.97;;;0.63;;
751;SDS011;360;48.764;9.164;2022-12-28T05:00:18;1.40;;;0.67;;
751;SDS011;360;48.764;9.164;2022-12-28T05:02:45;1.20;;;0.70;;
751;SDS011;360;48.764;9.164;2022-12-28T05:05:12;1.17;;;0.87;;
751;SDS011;360;48.764;9.164;2022-12-28T05:07:39;3.00;;;0.70;;
751;SDS011;360;48.764;9.164;2022-12-28T05:10:06;2.90;;;1.00;;
751;SDS011;360;48.764;9.164;2022-12-28T05:12:33;1.83;;;0.70;;
751;SDS011;360;48.764;9.164;2022-12-28T05:15:01;1.33;;;1.00;;
751;SDS011;360;48.764;9.164;2022-12-28T05:17:28;1.30;;;0.70;;
751;SDS011;360;48.764;9.164;2022-12-28T05:19:55;3.23;;;0.70;;
751;SDS011;360;48.764;9.164;2022-12-28T05:22:22;1.53;;;0.70;;
751;SDS011;360;48.764;9.164;2022-12-28T05:24:48;0.87;;;0.60;;
751;SDS011;360;48.764;9.164;2022-12-28T05:27:15;1.20;;;0.80;;
751;SDS011;360;48.764;9.164;2022-12-28T05:29:42;1.30;;;0.90;;
751;SDS011;360;48.764;9.164;2022-12-28T05:32:10;1.10;;;0.90;;
751;SDS011;360;48.764;9.164;2022-12-28T05:34:37;1.80;;;0.80;;
751;SDS011;360;48.764;9.164;2022-12-28T05:37:04;0.90;;;0.60;;
751;SDS011;360;48.764;9.164;2022-12-28T05:39:30;1.70;;;1.43;;
751;SDS011;360;48.764;9.164;2022-12-28T05:41:57;1.73;;;0.87;;
751;SDS011;360;48.764;9.164;2022-12-28T05:44:24;3.00;;;1.30;;
751;SDS011;360;48.764;9.164;2022-12-28T05:46:51;1.97;;;0.70;;
751;SDS011;360;48.764;9.164;2022-12-28T05:49:19;1.30;;;0.93;;
751;SDS011;360;48.764;9.164;2022-12-28T05:51:47;1.03;;;0.53;;
751;SDS011;360;48.764;9.164;2022-12-28T05:54:15;1.40;;;1.00;;
751;SDS011;360;48.764;9.164;2022-12-28T05:56:42;0.73;;;0.47;;
751;SDS011;360;48.764;9.164;2022-12-28T05:59:09;1.20;;;0.70;;
751;SDS011;360;48.764;9.164;2022-12-28T06:01:38;1.63;;;0.93;;
751;SDS011;360;48.764;9.164;2022-12-28T06:04:07;1.33;;;1.20;;
751;SDS011;360;48.764;9.164;2022-12-28T06:06:39;0.80;;;0.60;;
751;SDS011;360;48.764;9.164;2022-12-28T06:09:06;1.43;;;0.70;;
751;SDS011;360;48.764;9.164;2022-12-28T06:11:33;0.90;;;0.67;;
751;SDS011;360;48.764;9.164;2022-12-28T06:14:00;1.13;;;0.70;;
751;SDS011;360;48.764;9.164;2022-12-28T06:16:30;1.87;;;1.30;;
751;SDS011;360;48.764;9.164;2022-12-28T06:19:02;1.30;;;0.80;;
751;SDS011;360;48.764;9.164;2022-12-28T06:21:30;2.30;;;1.03;;
751;SDS011;360;48.764;9.164;2022-12-28T06:23:59;1.10;;;0.90;;
751;SDS011;360;48.764;9.164;2022-12-28T06:26:27;1.47;;;0.83;;
751;SDS011;360;48.764;9.164;2022-12-28T06:28:56;0.70;;;0.50;;
751;SDS011;360;48.764;9.164;2022-12-28T06:31:23;1.27;;;0.67;;
751;SDS011;360;48.764;9.164;2022-12-28T06:33:51;1.40;;;0.87;;
751;SDS011;360;48.764;9.164;2022-12-28T06:36:21;1.10;;;0.60;;
751;SDS011;360;48.764;9.164;2022-12-28T06:38:50;1.90;;;0.87;;
751;SDS011;360;48.764;9.164;2022-12-28T06:41:20;1.40;;;0.90;;
751;SDS011;360;48.764;9.164;2022-12-28T06:43:48;4.37;;;0.90;;
751;SDS011;360;48.764;9.164;2022-12-28T06:46:16;1.17;;;0.77;;
751;SDS011;360;48.764;9.164;2022-12-28T06:48:43;1.10;;;0.87;;
751;SDS011;360;48.764;9.164;2022-12-28T06:51:11;1.13;;;0.63;;
751;SDS011;360;48.764;9.164;2022-12-28T06:53:39;1.57;;;0.70;;
751;SDS011;360;48.764;9.164;2022-12-28T06:56:07;0.80;;;0.60;;
751;SDS011;360;48.764;9.164;2022-12-28T06:58:37;1.17;;;0.77;;
751;SDS011;360;48.764;9.164;2022-12-28T07:01:05;2.40;;;1.03;;
751;SDS011;360;48.764;9.164;2022-12-28T07:03:32;1.00;;;0.87;;
751;SDS011;360;48.764;9.164;2022-12-28T07:05:59;1.73;;;1.07;;
751;SDS011;360;48.764;9.164;2022-12-28T07:08:27;2.20;;;1.13;;
751;SDS011;360;48.764;9.164;2022-12-28T07:10:54;4.70;;;1.33;;
751;SDS011;360;48.764;9.164;2022-12-28T07:13:21;1.50;;;0.90;;
751;SDS011;360;48.764;9.164;2022-12-28T07:15:49;1.13;;;0.73;;
751;SDS011;360;48.764;9.164;2022-12-28T07:18:16;0.90;;;0.60;;
751;SDS011;360;48.764;9.164;2022-12-28T07:20:42;1.77;;;0.80;;
751;SDS011;360;48.764;9.164;2022-12-28T07:23:09;2.70;;;1.40;;
751;SDS011;360;48.764;9.164;2022-12-28T07:25:36;1.50;;;1.00;;
751;SDS011;360;48.764;9.164;2022-12-28T07:28:03;1.80;;;1.13;;
751;SDS011;360;48.764;9.164;2022-12-28T07:30:30;3.80;;;2.00;;
751;SDS011;360;48.764;9.164;2022-12-28T07:32:58;1.50;;;1.13;;
751;SDS011;360;48.764;9.164;2022-12-28T07:35:25;5.30;;;1.70;;
751;SDS011;360;48.764;9.164;2022-12-28T07:37:52;1.80;;;0.90;;
751;SDS011;360;48.764;9.164;2022-12-28T07:40:19;1.60;;;1.03;;
751;SDS011;360;48.764;9.164;2022-12-28T07:42:46;1.63;;;1.13;;
751;SDS011;360;48.764;9.164;2022-12-28T07:45:13;2.20;;;1.10;;
751;SDS011;360;48.764;9.164;2022-12-28T07:47:40;5.80;;;1.93;;
751;SDS011;360;48.764;9.164;2022-12-28T07:50:08;1.00;;;0.70;;
751;SDS011;360;48.764;9.164;2022-12-28T07:52:35;2.60;;;1.33;;
751;SDS011;360;48.764;9.164;2022-12-28T07:55:02;3.43;;;1.30;;
751;SDS011;360;48.764;9.164;2022-12-28T07:57:29;1.93;;;1.10;;
751;SDS011;360;48.764;9.164;2022-12-28T07:59:56;1.60;;;1.10;;
751;SDS011;360;48.764;9.164;2022-12-28T08:02:23;0.90;;;0.70;;
751;SDS011;360;48.764;9.164;2022-12-28T08:04:50;1.83;;;1.07;;
751;SDS011;360;48.764;9.164;2022-12-28T08:07:18;2.23;;;1.20;;
751;SDS011;360;48.764;9.164;2022-12-28T08:09:44;2.63;;;1.27;;
751;SDS011;360;48.764;9.164;2022-12-28T08:12:11;1.83;;;1.00;;
751;SDS011;360;48.764;9.164;2022-12-28T08:14:38;3.53;;;1.17;;
751;SDS011;360;48.764;9.164;2022-12-28T08:17:05;1.93;;;0.90;;
751;SDS011;360;48.764;9.164;2022-12-28T08:19:32;2.43;;;1.17;;
751;SDS011;360;48.764;9.164;2022-12-28T08:21:59;1.53;;;1.07;;
751;SDS011;360;48.764;9.164;2022-12-28T08:24:27;1.90;;;1.30;;
751;SDS011;360;48.764;9.164;2022-12-28T08:26:53;0.70;;;0.50;;
751;SDS011;360;48.764;9.164;2022-12-28T08:29:20;2.20;;;1.57;;
751;SDS011;360;48.764;9.164;2022-12-28T08:31:47;1.47;;;0.90;;
751;SDS011;360;48.764;9.164;2022-12-28T08:34:15;1.63;;;0.90;;
751;SDS011;360;48.764;9.164;2022-12-28T08:36:43;4.07;;;1.30;;
751;SDS011;360;48.764;9.164;2022-12-28T08:39:10;1.10;;;0.90;;
751;SDS011;360;48.764;9.164;2022-12-28T08:41:39;0.80;;;0.63;;
751;SDS011;360;48.764;9.164;2022-12-28T08:44:06;1.20;;;0.80;;
751;SDS011;360;48.764;9.164;2022-12-28T08:46:33;1.43;;;1.00;;
751;SDS011;360;48.764;9.164;2022-12-28T08:49:01;2.43;;;1.87;;
751;SDS011;360;48.764;9.164;2022-12-28T08:51:30;2.37;;;1.10;;
751;SDS011;360;48.764;9.164;2022-12-28T08:53:58;1.67;;;0.80;;
751;SDS011;360;48.764;9.164;2022-12-28T08:56:27;1.80;;;1.10;;
751;SDS011;360;48.764;9.164;2022-12-28T08:58:56;5.83;;;1.00;;
751;SDS011;360;48.764;9.164;2022-12-28T09:01:24;5.23;;;1.07;;
751;SDS011;360;48.764;9.164;2022-12-28T09:03:54;1.73;;;0.90;;
751;SDS011;360;48.764;9.164;2022-12-28T09:06:23;1.53;;;0.87;;
751;SDS011;360;48.764;9.164;2022-12-28T09:08:52;1.17;;;0.80;;
751;SDS011;360;48.764;9.164;2022-12-28T09:11:20;0.90;;;0.60;;
751;SDS011;360;48.764;9.164;2022-12-28T09:13:48;1.30;;;0.83;;
751;SDS011;360;48.764;9.164;2022-12-28T09:16:17;1.50;;;0.87;;
751;SDS011;360;48.764;9.164;2022-12-28T09:18:47;2.50;;;1.00;;
751;SDS011;360;48.764;9.164;2022-12-28T09:21:19;1.97;;;0.80;;
751;SDS011;360;48.764;9.164;2022-12-28T09:23:47;1.13;;;0.90;;
751;SDS011;360;48.764;9.164;2022-12-28T09:26:15;1.13;;;0.90;;
751;SDS011;360;48.764;9.164;2022-12-28T09:28:44;1.43;;;0.67;;
751;SDS011;360;48.764;9.164;2022-12-28T09:31:11;0.93;;;0.70;;
751;SDS011;360;48.764;9.164;2022-12-28T09:33:40;0.90;;;0.70;;
751;SDS011;360;48.764;9.164;2022-12-28T09:36:26;1.00;;;0.90;;
751;SDS011;360;48.764;9.164;2022-12-28T09:38:54;1.50;;;0.90;;
751;SDS011;360;48.764;9.164;2022-12-28T09:41:24;2.50;;;1.07;;
751;SDS011;360;48.764;9.164;2022-12-28T09:43:54;1.63;;;0.87;;
751;SDS011;360;48.764;9.164;2022-12-28T09:46:29;0.90;;;0.70;;
751;SDS011;360;48.764;9.164;2022-12-28T09:49:01;2.80;;;1.10;;
751;SDS011;360;48.764;9.164;2022-12-28T09:51:32;2.20;;;0.97;;
751;SDS011;360;48.764;9.164;2022-12-28T09:54:03;1.10;;;0.70;;
751;SDS011;360;48.764;9.164;2022-12-28T09:56:32;1.20;;;0.77;;
751;SDS011;360;48.764;9.164;2022-12-28T09:59:02;4.60;;;1.30;;
751;SDS011;360;48.764;9.164;2022-12-28T10:01:31;1.20;;;0.90;;
751;SDS011;360;48.764;9.164;2022-12-28T10:04:02;1.00;;;0.90;;
751;SDS011;360;48.764;9.164;2022-12-28T10:06:30;1.03;;;0.70;;
751;SDS011;360;48.764;9.164;2022-12-28T10:09:00;2.37;;;1.20;;
751;SDS011;360;48.764;9.164;2022-12-28T10:11:28;1.13;;;0.73;;
751;SDS011;360;48.764;9.164;2022-12-28T10:14:00;2.33;;;0.70;;
751;SDS011;360;48.764;9.164;2022-12-28T10:16:37;1.03;;;0.70;;
751;SDS011;360;48.764;9.164;2022-12-28T10:19:06;1.80;;;1.07;;
751;SDS011;360;48.764;9.164;2022-12-28T10:21:33;2.53;;;1.03;;
751;SDS011;360;48.764;9.164;2022-12-28T10:24:01;0.90;;;0.70;;
751;SDS011;360;48.764;9.164;2022-12-28T10:26:31;1.37;;;0.90;;
751;SDS011;360;48.764;9.164;2022-12-28T10:28:59;1.43;;;0.77;;
751;SDS011;360;48.764;9.164;2022-12-28T10:31:33;3.00;;;1.00;;
751;SDS011;360;48.764;9.164;2022-12-28T10:34:01;1.00;;;0.60;;
751;SDS011;360;48.764;9.164;2022-12-28T10:36:38;1.47;;;0.90;;
751;SDS011;360;48.764;9.164;2022-12-28T10:39:06;0.90;;;0.60;;
751;SDS011;360;48.764;9.164;2022-12-28T10:41:40;2.00;;;0.80;;
751;SDS011;360;48.764;9.164;2022-12-28T10:44:16;1.47;;;0.97;;
751;SDS011;360;48.764;9.164;2022-12-28T10:46:53;0.70;;;0.50;;
751;SDS011;360;48.764;9.164;2022-12-28T10:49:26;1.73;;;1.27;;
751;SDS011;360;48.764;9.164;2022-12-28T10:51:57;0.73;;;0.47;;
751;SDS011;360;48.764;9.164;2022-12-28T10:54:30;1.33;;;0.90;;
751;SDS011;360;48.764;9.164;2022-12-28T10:56:59;0.87;;;0.57;;
751;SDS011;360;48.764;9.164;2022-12-28T10:59:27;1.77;;;0.80;;
751;SDS011;360;48.764;9.164;2022-12-28T11:01:54;0.97;;;0.57;;
751;SDS011;360;48.764;9.164;2022-12-28T11:04:54;4.60;;;0.80;;
751;SDS011;360;48.764;9.164;2022-12-28T11:07:25;2.43;;;0.83;;
751;SDS011;360;48.764;9.164;2022-12-28T11:10:10;3.07;;;0.60;;
751;SDS011;360;48.764;9.164;2022-12-28T11:12:40;2.20;;;0.83;;
751;SDS011;360;48.764;9.164;2022-12-28T11:15:11;1.63;;;0.80;;
751;SDS011;360;48.764;9.164;2022-12-28T11:17:40;0.70;;;0.50;;
751;SDS011;360;48.764;9.164;2022-12-28T11:20:13;0.97;;;0.87;;
751;SDS011;360;48.764;9.164;2022-12-28T11:22:43;0.97;;;0.87;;
751;SDS011;360;48.764;9.164;2022-12-28T11:25:11;0.90;;;0.63;;
751;SDS011;360;48.764;9.164;2022-12-28T11:27:41;0.80;;;0.70;;
751;SDS011;360;48.764;9.164;2022-12-28T11:30:11;1.20;;;0.77;;
751;SDS011;360;48.764;9.164;2022-12-28T11:32:41;1.07;;;0.80;;
751;SDS011;360;48.764;9.164;2022-12-28T11:35:16;1.10;;;0.50;;
751;SDS011;360;48.764;9.164;2022-12-28T11:37:52;1.23;;;0.70;;
751;SDS011;360;48.764;9.164;2022-12-28T11:49:29;0.70;;;0.50;;
751;SDS011;360;48.764;9.164;2022-12-28T11:54:59;1.23;;;0.73;;
751;SDS011;360;48.764;9.164;2022-12-28T11:57:34;1.70;;;0.93;;
751;SDS011;360;48.764;9.164;2022-12-28T12:03:07;1.23;;;0.80;;
751;SDS011;360;48.764;9.164;2022-12-28T12:05:47;0.90;;;0.60;;
751;SDS011;360;48.764;9.164;2022-12-28T12:13:58;0.80;;;0.50;;
751;SDS011;360;48.764;9.164;2022-12-28T12:16:28;1.20;;;0.80;;
751;SDS011;360;48.764;9.164;2022-12-28T12:19:00;0.80;;;0.63;;
751;SDS011;360;48.764;9.164;2022-12-28T12:21:32;1.93;;;0.90;;
751;SDS011;360;48.764;9.164;2022-12-28T12:24:04;1.00;;;0.70;;
751;SDS011;360;48.764;9.164;2022-12-28T12:26:44;1.00;;;0.60;;
751;SDS011;360;48.764;9.164;2022-12-28T12:29:16;1.50;;;0.87;;
751;SDS011;360;48.764;9.164;2022-12-28T12:31:49;1.30;;;0.90;;
751;SDS011;360;48.764;9.164;2022-12-28T12:34:23;0.70;;;0.50;;
751;SDS011;360;48.764;9.164;2022-12-28T12:42:47;0.77;;;0.53;;
751;SDS011;360;48.764;9.164;2022-12-28T12:45:27;2.00;;;1.03;;
751;SDS011;360;48.764;9.164;2022-12-28T12:48:05;2.20;;;0.93;;
751;SDS011;360;48.764;9.164;2022-12-28T12:50:49;0.90;;;0.50;;
751;SDS011;360;48.764;9.164;2022-12-28T12:53:27;5.00;;;0.80;;
751;SDS011;360;48.764;9.164;2022-12-28T12:56:10;1.07;;;0.70;;
751;SDS011;360;48.764;9.164;2022-12-28T12:58:50;1.17;;;1.03;;
751;SDS011;360;48.764;9.164;2022-12-28T13:01:28;0.83;;;0.50;;
751;SDS011;360;48.764;9.164;2022-12-28T13:04:07;1.00;;;0.80;;
751;SDS011;360;48.764;9.164;2022-12-28T13:06:43;1.20;;;0.60;;
751;SDS011;360;48.764;9.164;2022-12-28T13:09:12;1.17;;;0.80;;
751;SDS011;360;48.764;9.164;2022-12-28T13:11:42;1.20;;;0.50;;
751;SDS011;360;48.764;9.164;2022-12-28T13:14:13;1.30;;;1.10;;
751;SDS011;360;48.764;9.164;2022-12-28T13:16:45;2.57;;;0.60;;
751;SDS011;360;48.764;9.164;2022-12-28T13:19:15;1.50;;;0.90;;
751;SDS011;360;48.764;9.164;2022-12-28T13:21:46;1.67;;;0.77;;
751;SDS011;360;48.764;9.164;2022-12-28T13:24:17;1.37;;;0.93;;
751;SDS011;360;48.764;9.164;2022-12-28T13:26:45;2.40;;;0.80;;
751;SDS011;360;48.764;9.164;2022-12-28T13:29:14;1.20;;;0.70;;
751;SDS011;360;48.764;9.164;2022-12-28T13:31:44;1.77;;;1.03;;
751;SDS011;360;48.764;9.164;2022-12-28T13:34:15;2.57;;;1.20;;
751;SDS011;360;48.764;9.164;2022-12-28T13:36:48;5.40;;;1.10;;
751;SDS011;360;48.764;9.164;2022-12-28T13:39:18;2.40;;;2.00;;
751;SDS011;360;48.764;9.164;2022-12-28T13:41:48;2.70;;;0.93;;
751;SDS011;360;48.764;9.164;2022-12-28T13:44:28;5.13;;;1.17;;
751;SDS011;360;48.764;9.164;2022-12-28T13:47:00;2.33;;;0.80;;
751;SDS011;360;48.764;9.164;2022-12-28T13:49:32;2.00;;;0.97;;
751;SDS011;360;48.764;9.164;2022-12-28T13:52:07;1.30;;;1.00;;
751;SDS011;360;48.764;9.164;2022-12-28T13:54:38;12.00;;;2.67;;
751;SDS011;360;48.764;9.164;2022-12-28T13:57:10;3.90;;;1.13;;
751;SDS011;360;48.764;9.164;2022-12-28T13:59:42;3.40;;;1.23;;
751;SDS011;360;48.764;9.164;2022-12-28T14:02:12;5.33;;;1.00;;
751;SDS011;360;48.764;9.164;2022-12-28T14:04:41;2.07;;;0.90;;
751;SDS011;360;48.764;9.164;2022-12-28T14:07:10;3.70;;;2.10;;
751;SDS011;360;48.764;9.164;2022-12-28T14:09:38;1.77;;;1.00;;
751;SDS011;360;48.764;9.164;2022-12-28T14:12:05;2.20;;;0.60;;
751;SDS011;360;48.764;9.164;2022-12-28T14:14:32;1.37;;;0.80;;
751;SDS011;360;48.764;9.164;2022-12-28T14:17:01;1.10;;;0.83;;
751;SDS011;360;48.764;9.164;2022-12-28T14:19:28;1.80;;;0.83;;
751;SDS011;360;48.764;9.164;2022-12-28T14:21:55;1.13;;;0.80;;
751;SDS011;360;48.764;9.164;2022-12-28T14:24:22;0.90;;;0.63;;
751;SDS011;360;48.764;9.164;2022-12-28T14:26:50;0.83;;;0.70;;
751;SDS011;360;48.764;9.164;2022-12-28T14:29:20;1.50;;;0.73;;
751;SDS011;360;48.764;9.164;2022-12-28T14:31:53;1.80;;;0.80;;
751;SDS011;360;48.764;9.164;2022-12-28T14:34:26;0.80;;;0.60;;
751;SDS011;360;48.764;9.164;2022-12-28T14:36:55;1.47;;;0.70;;
751;SDS011;360;48.764;9.164;2022-12-28T14:39:24;2.40;;;0.90;;
751;SDS011;360;48.764;9.164;2022-12-28T14:41:54;2.00;;;1.23;;
751;SDS011;360;48.764;9.164;2022-12-28T14:44:24;1.87;;;1.40;;
751;SDS011;360;48.764;9.164;2022-12-28T14:46:54;3.67;;;1.10;;
751;SDS011;360;48.764;9.164;2022-12-28T14:49:35;7.90;;;1.30;;
751;SDS011;360;48.764;9.164;2022-12-28T14:54:51;1.60;;;0.90;;
751;SDS011;360;48.764;9.164;2022-12-28T14:57:20;1.10;;;1.00;;
751;SDS011;360;48.764;9.164;2022-12-28T14:59:55;0.90;;;0.63;;
751;SDS011;360;48.764;9.164;2022-12-28T15:02:38;1.37;;;0.80;;
751;SDS011;360;48.764;9.164;2022-12-28T15:08:00;1.10;;;0.97;;
751;SDS011;360;48.764;9.164;2022-12-28T15:10:27;0.93;;;0.60;;
751;SDS011;360;48.764;9.164;2022-12-28T15:12:55;1.10;;;0.80;;
751;SDS011;360;48.764;9.164;2022-12-28T15:15:21;1.40;;;0.80;;
751;SDS011;360;48.764;9.164;2022-12-28T15:17:48;1.97;;;1.00;;
751;SDS011;360;48.764;9.164;2022-12-28T15:20:15;1.67;;;1.47;;
751;SDS011;360;48.764;9.164;2022-12-28T15:22:43;1.20;;;0.70;;
751;SDS011;360;48.764;9.164;2022-12-28T15:25:13;1.30;;;1.00;;
751;SDS011;360;48.764;9.164;2022-12-28T15:27:40;1.80;;;1.30;;
751;SDS011;360;48.764;9.164;2022-12-28T15:30:07;2.27;;;1.20;;
751;SDS011;360;48.764;9.164;2022-12-28T15:32:35;1.83;;;1.00;;
751;SDS011;360;48.764;9.164;2022-12-28T15:35:02;3.37;;;1.00;;
751;SDS011;360;48.764;9.164;2022-12-28T15:37:29;1.63;;;1.07;;
751;SDS011;360;48.764;9.164;2022-12-28T15:39:57;1.47;;;1.17;;
751;SDS011;360;48.764;9.164;2022-12-28T15:42:24;2.00;;;1.07;;
751;SDS011;360;48.764;9.164;2022-12-28T15:44:51;1.30;;;1.07;;
751;SDS011;360;48.764;9.164;2022-12-28T15:47:18;3.30;;;1.07;;
751;SDS011;360;48.764;9.164;2022-12-28T15:49:45;2.77;;;1.73;;
751;SDS011;360;48.764;9.164;2022-12-28T15:52:12;1.03;;;0.87;;
751;SDS011;360;48.764;9.164;2022-12-28T15:54:38;4.70;;;1.60;;
751;SDS011;360;48.764;9.164;2022-12-28T15:57:07;2.73;;;1.10;;
751;SDS011;360;48.764;9.164;2022-12-28T15:59:36;1.87;;;1.30;;
751;SDS011;360;48.764;9.164;2022-12-28T16:02:03;1.53;;;1.20;;
751;SDS011;360;48.764;9.164;2022-12-28T16:04:30;2.60;;;1.03;;
751;SDS011;360;48.764;9.164;2022-12-28T16:06:56;2.73;;;1.20;;
751;SDS011;360;48.764;9.164;2022-12-28T16:09:23;3.90;;;1.57;;
751;SDS011;360;48.764;9.164;2022-12-28T16:11:50;1.80;;;1.40;;
751;SDS011;360;48.764;9.164;2022-12-28T16:14:18;2.50;;;1.77;;
751;SDS011;360;48.764;9.164;2022-12-28T16:16:45;3.30;;;2.17;;
751;SDS011;360;48.764;9.164;2022-12-28T16:19:13;2.70;;;1.60;;
751;SDS011;360;48.764;9.164;2022-12-28T16:21:40;3.70;;;1.90;;
751;SDS011;360;48.764;9.164;2022-12-28T16:24:08;2.50;;;1.30;;
751;SDS011;360;48.764;9.164;2022-12-28T16:26:35;1.30;;;1.20;;
751;SDS011;360;48.764;9.164;2022-12-28T16:29:02;4.53;;;1.30;;
751;SDS011;360;48.764;9.164;2022-12-28T16:31:31;2.30;;;1.50;;
751;SDS011;360;48.764;9.164;2022-12-28T16:34:00;3.13;;;1.83;;
751;SDS011;360;48.764;9.164;2022-12-28T16:36:28;3.67;;;1.40;;